ENBNENVA

Guest
Details From ENBN - BRONNOY
To ENVA - Vaernes
Flight Number -
Tags generated
Created
Modified
Stats Distance 125 nm / 231 km
Max Altitude 10,200 ft / 3,109 m
Waypoints 4
Social Downloads 0
Likes 0
Share

Download

Looking for another format? Having issues loading an existing format? Contact us
Advertisement - Login to hide

Notes

Basic altitude profile: - Ascent Rate: 2500ft/min - Ascent Speed: 250kts - Cruise Altitude: 1900ft - Cruise Speed: 300kts - Descent Rate: 1500ft/min - Descent Speed: 250kts Options: - Use NATs: yes - Use PACOTS: no - Use low airways: yes - Use high airways: yes

Route

ENBN BINTU M609 NAMOX ENVA

ID Type Via Altitude (ft/m) Position (lat/lon) Dist (leg/tot) Name
O ENBN APT - 0 / 0 65.45908 / 12.21347 - / 0 nm BRONNOY
BINTU FIX - 10,200 / 3,109 65.00000 / 11.88278 28 / 28 nm
NAMOX FIX M609 (AWY-LO) 9,600 / 2,926 64.18611 / 11.32111 50 / 79 nm
O ENVA APT - 0 / 0 63.45760 / 10.91798 45 / 124 nm Vaernes

Altitude Profile

Advertisement - Login to hide

ENBN

Details ICAO ENBN (BNN)
Name Bronnoysund
Region Norway
Timezone Unknown
Stats Elevation 24 ft / 7 m (AMSL)
Location 65.459100° 12.213500°
Runways 1
Magnetic Variation 4.897° E

METAR

ENBN 192220Z 03007KT CAVOK 01/M05 Q1016

Decode

TAF

Not found

Departure Runways

ID Width Length Bearing (true/mag) Surface Threshold Overrun Markings Lighting
04 100 ft / 30 m 4,702 ft / 1,433 m 38.93° / 34.03° ASPHALT 387 ft / 118 m 0 ft / 0 m APP EDGE THRESHOLD MALS
22 100 ft / 30 m 4,702 ft / 1,433 m 218.95° / 214.05° ASPHALT 387 ft / 118 m 0 ft / 0 m APP EDGE THRESHOLD MALS

ENVA

Details ICAO ENVA (TRD)
Name Trondheim Vaernes
Region Norway
Timezone Europe/Oslo (UTC+2.0)
Stats Elevation 56 ft / 17 m (AMSL)
Location 63.457500° 10.924200°
Runways 1
Magnetic Variation 4.042° E

METAR

ENVA 192220Z 09004KT 9999 FEW025 M00/M00 Q1016 RMK WIND 670FT 16009KT

Decode

TAF

TAF ENVA 191700Z 1918/2018 08005KT 9999 FEW020 BKN040 BECMG 2011/2014 09015KT

Decode

Destination Runways

ID Width Length Bearing (true/mag) Surface Threshold Overrun Markings Lighting
09 148 ft / 45 m 9,744 ft / 2,970 m 90.18° / 86.14° ASPHALT 830 ft / 253 m 0 ft / 0 m PREC-APP CENTERLINE EDGE THRESHOLD CALVERT REIL-OMNI
27 148 ft / 45 m 9,744 ft / 2,970 m 270.24° / 266.19° ASPHALT 745 ft / 227 m 0 ft / 0 m PREC-APP CENTERLINE EDGE THRESHOLD CALVERT REIL-OMNI

Approach Navaids

Runway Type Ident Frequency Range Bearing (true/mag) Slope Elevation
09 LOC-ILS TO 110.30 MHz 18 nm / 33 km 90.26° / 86.22 ° - 31 ft / 9 m (AMSL)
09 GS TO 110.30 MHz 10 nm / 19 km 90.46° / 86.42 ° 3.00° 56 ft / 17 m (AMSL)
09 DME TO 110.30 MHz 18 nm / 33 km - - 31 ft / 9 m (AMSL)
27 DME TD 109.90 MHz 18 nm / 33 km - - 78 ft / 24 m (AMSL)
27 LOC-ILS TD 109.90 MHz 18 nm / 33 km 270.20° / 266.16 ° - 56 ft / 17 m (AMSL)
27 GS TD 109.90 MHz 10 nm / 19 km 270.46° / 266.42 ° 3.40° 56 ft / 17 m (AMSL)
27 OM OM - - 270.23° / 266.19 ° - 56 ft / 17 m (AMSL)
27 MM MM - - 270.23° / 266.19 ° - 56 ft / 17 m (AMSL)

Popular Alternatives